sensor_id;sensor_type;location;lat;lon;timestamp;P1;durP1;ratioP1;P2;durP2;ratioP2
52468;SDS011;38381;53.688;10.776;2023-02-01T00:02:45;17.33;;;5.43;;
52468;SDS011;38381;53.688;10.776;2023-02-01T00:07:46;17.38;;;5.03;;
52468;SDS011;38381;53.688;10.776;2023-02-01T00:12:48;18.80;;;5.38;;
52468;SDS011;38381;53.688;10.776;2023-02-01T00:17:52;10.18;;;5.35;;
52468;SDS011;38381;53.688;10.776;2023-02-01T00:22:54;12.63;;;4.30;;
52468;SDS011;38381;53.688;10.776;2023-02-01T00:27:54;13.13;;;3.70;;
52468;SDS011;38381;53.688;10.776;2023-02-01T00:32:57;16.73;;;5.35;;
52468;SDS011;38381;53.688;10.776;2023-02-01T00:37:57;14.02;;;5.93;;
52468;SDS011;38381;53.688;10.776;2023-02-01T00:42:59;15.73;;;6.53;;
52468;SDS011;38381;53.688;10.776;2023-02-01T00:47:59;12.73;;;5.32;;
52468;SDS011;38381;53.688;10.776;2023-02-01T00:53:00;13.32;;;5.32;;
52468;SDS011;38381;53.688;10.776;2023-02-01T00:58:00;12.80;;;4.53;;
52468;SDS011;38381;53.688;10.776;2023-02-01T01:03:01;17.02;;;8.05;;
52468;SDS011;38381;53.688;10.776;2023-02-01T01:08:01;9.32;;;3.45;;
52468;SDS011;38381;53.688;10.776;2023-02-01T01:13:01;10.90;;;4.93;;
52468;SDS011;38381;53.688;10.776;2023-02-01T01:18:02;10.63;;;4.57;;
52468;SDS011;38381;53.688;10.776;2023-02-01T01:23:03;11.50;;;6.72;;
52468;SDS011;38381;53.688;10.776;2023-02-01T01:28:04;12.68;;;5.57;;
52468;SDS011;38381;53.688;10.776;2023-02-01T01:33:05;9.27;;;4.60;;
52468;SDS011;38381;53.688;10.776;2023-02-01T01:38:05;22.40;;;6.35;;
52468;SDS011;38381;53.688;10.776;2023-02-01T01:43:24;14.48;;;5.93;;
52468;SDS011;38381;53.688;10.776;2023-02-01T01:48:25;12.80;;;6.15;;
52468;SDS011;38381;53.688;10.776;2023-02-01T01:53:33;25.50;;;5.90;;
52468;SDS011;38381;53.688;10.776;2023-02-01T01:58:38;16.75;;;4.88;;
52468;SDS011;38381;53.688;10.776;2023-02-01T02:03:40;24.02;;;6.35;;
52468;SDS011;38381;53.688;10.776;2023-02-01T02:08:43;15.93;;;6.10;;
52468;SDS011;38381;53.688;10.776;2023-02-01T02:13:44;17.80;;;6.82;;
52468;SDS011;38381;53.688;10.776;2023-02-01T02:19:22;15.50;;;5.93;;
52468;SDS011;38381;53.688;10.776;2023-02-01T02:24:23;17.02;;;6.30;;
52468;SDS011;38381;53.688;10.776;2023-02-01T02:29:52;20.23;;;7.75;;
52468;SDS011;38381;53.688;10.776;2023-02-01T02:34:57;15.98;;;5.55;;
52468;SDS011;38381;53.688;10.776;2023-02-01T02:40:34;17.90;;;5.93;;
52468;SDS011;38381;53.688;10.776;2023-02-01T02:45:42;11.52;;;5.32;;
52468;SDS011;38381;53.688;10.776;2023-02-01T02:51:10;14.90;;;6.15;;
52468;SDS011;38381;53.688;10.776;2023-02-01T02:56:34;11.23;;;6.32;;
52468;SDS011;38381;53.688;10.776;2023-02-01T03:01:55;11.70;;;5.18;;
52468;SDS011;38381;53.688;10.776;2023-02-01T03:07:46;20.35;;;7.82;;
52468;SDS011;38381;53.688;10.776;2023-02-01T03:12:44;22.30;;;7.18;;
52468;SDS011;38381;53.688;10.776;2023-02-01T03:17:57;15.45;;;5.80;;
52468;SDS011;38381;53.688;10.776;2023-02-01T03:23:00;14.38;;;5.22;;
52468;SDS011;38381;53.688;10.776;2023-02-01T03:28:07;11.73;;;4.93;;
52468;SDS011;38381;53.688;10.776;2023-02-01T03:33:14;13.98;;;4.68;;
52468;SDS011;38381;53.688;10.776;2023-02-01T03:43:49;5.65;;;3.55;;
52468;SDS011;38381;53.688;10.776;2023-02-01T03:48:54;6.22;;;2.58;;
52468;SDS011;38381;53.688;10.776;2023-02-01T03:53:55;10.43;;;4.63;;
52468;SDS011;38381;53.688;10.776;2023-02-01T03:58:57;13.07;;;4.10;;
52468;SDS011;38381;53.688;10.776;2023-02-01T04:04:00;6.57;;;3.30;;
52468;SDS011;38381;53.688;10.776;2023-02-01T04:09:01;8.52;;;3.90;;
52468;SDS011;38381;53.688;10.776;2023-02-01T04:14:02;9.05;;;3.40;;
52468;SDS011;38381;53.688;10.776;2023-02-01T04:19:04;8.55;;;4.18;;
52468;SDS011;38381;53.688;10.776;2023-02-01T04:24:04;5.75;;;3.60;;
52468;SDS011;38381;53.688;10.776;2023-02-01T04:29:05;9.05;;;3.97;;
52468;SDS011;38381;53.688;10.776;2023-02-01T04:34:06;6.38;;;3.38;;
52468;SDS011;38381;53.688;10.776;2023-02-01T04:39:06;5.18;;;2.78;;
52468;SDS011;38381;53.688;10.776;2023-02-01T04:44:15;6.55;;;3.25;;
52468;SDS011;38381;53.688;10.776;2023-02-01T04:49:17;8.18;;;2.40;;
52468;SDS011;38381;53.688;10.776;2023-02-01T04:54:19;6.28;;;2.70;;
52468;SDS011;38381;53.688;10.776;2023-02-01T04:59:19;5.78;;;2.80;;
52468;SDS011;38381;53.688;10.776;2023-02-01T05:04:20;4.67;;;2.60;;
52468;SDS011;38381;53.688;10.776;2023-02-01T05:09:20;5.82;;;2.55;;
52468;SDS011;38381;53.688;10.776;2023-02-01T05:14:21;5.70;;;3.22;;
52468;SDS011;38381;53.688;10.776;2023-02-01T05:19:22;5.85;;;3.45;;
52468;SDS011;38381;53.688;10.776;2023-02-01T05:24:22;7.35;;;3.20;;
52468;SDS011;38381;53.688;10.776;2023-02-01T05:29:23;9.13;;;3.38;;
52468;SDS011;38381;53.688;10.776;2023-02-01T05:34:23;5.13;;;2.60;;
52468;SDS011;38381;53.688;10.776;2023-02-01T05:39:24;6.93;;;3.55;;
52468;SDS011;38381;53.688;10.776;2023-02-01T05:44:24;6.25;;;2.50;;
52468;SDS011;38381;53.688;10.776;2023-02-01T05:49:25;4.20;;;2.25;;
52468;SDS011;38381;53.688;10.776;2023-02-01T05:54:25;4.32;;;2.22;;
52468;SDS011;38381;53.688;10.776;2023-02-01T05:59:26;4.22;;;2.10;;
52468;SDS011;38381;53.688;10.776;2023-02-01T06:04:26;5.05;;;2.40;;
52468;SDS011;38381;53.688;10.776;2023-02-01T06:09:26;3.05;;;2.17;;
52468;SDS011;38381;53.688;10.776;2023-02-01T06:14:28;4.40;;;2.75;;
52468;SDS011;38381;53.688;10.776;2023-02-01T06:19:29;5.75;;;3.25;;
52468;SDS011;38381;53.688;10.776;2023-02-01T06:24:30;2.72;;;1.80;;
52468;SDS011;38381;53.688;10.776;2023-02-01T06:29:30;4.77;;;2.10;;
52468;SDS011;38381;53.688;10.776;2023-02-01T06:34:31;2.22;;;1.95;;
52468;SDS011;38381;53.688;10.776;2023-02-01T06:39:31;2.42;;;2.05;;
52468;SDS011;38381;53.688;10.776;2023-02-01T06:44:33;2.10;;;1.65;;
52468;SDS011;38381;53.688;10.776;2023-02-01T06:49:33;2.05;;;1.77;;
52468;SDS011;38381;53.688;10.776;2023-02-01T06:54:33;2.90;;;1.63;;
52468;SDS011;38381;53.688;10.776;2023-02-01T06:59:34;3.75;;;1.98;;
52468;SDS011;38381;53.688;10.776;2023-02-01T07:04:34;2.25;;;1.60;;
52468;SDS011;38381;53.688;10.776;2023-02-01T07:09:35;3.08;;;2.10;;
52468;SDS011;38381;53.688;10.776;2023-02-01T07:14:35;4.53;;;2.10;;
52468;SDS011;38381;53.688;10.776;2023-02-01T07:19:35;6.78;;;2.30;;
52468;SDS011;38381;53.688;10.776;2023-02-01T07:24:36;4.30;;;2.60;;
52468;SDS011;38381;53.688;10.776;2023-02-01T07:29:36;2.57;;;2.17;;
52468;SDS011;38381;53.688;10.776;2023-02-01T07:34:36;3.30;;;1.73;;
52468;SDS011;38381;53.688;10.776;2023-02-01T07:39:37;4.75;;;4.32;;
52468;SDS011;38381;53.688;10.776;2023-02-01T07:44:37;2.90;;;2.25;;
52468;SDS011;38381;53.688;10.776;2023-02-01T07:49:38;5.93;;;2.72;;
52468;SDS011;38381;53.688;10.776;2023-02-01T07:54:38;5.82;;;3.97;;
52468;SDS011;38381;53.688;10.776;2023-02-01T07:59:38;5.13;;;3.15;;
52468;SDS011;38381;53.688;10.776;2023-02-01T08:04:59;7.30;;;3.13;;
52468;SDS011;38381;53.688;10.776;2023-02-01T08:09:59;10.18;;;4.57;;
52468;SDS011;38381;53.688;10.776;2023-02-01T08:15:00;9.07;;;3.38;;
52468;SDS011;38381;53.688;10.776;2023-02-01T08:20:00;21.00;;;5.38;;
52468;SDS011;38381;53.688;10.776;2023-02-01T08:25:00;13.38;;;4.25;;
52468;SDS011;38381;53.688;10.776;2023-02-01T08:30:01;12.43;;;5.78;;
52468;SDS011;38381;53.688;10.776;2023-02-01T08:35:03;10.07;;;4.15;;
52468;SDS011;38381;53.688;10.776;2023-02-01T08:40:04;14.13;;;4.65;;
52468;SDS011;38381;53.688;10.776;2023-02-01T08:45:05;12.10;;;5.65;;
52468;SDS011;38381;53.688;10.776;2023-02-01T08:50:08;16.98;;;4.95;;
52468;SDS011;38381;53.688;10.776;2023-02-01T08:55:09;13.57;;;4.88;;
52468;SDS011;38381;53.688;10.776;2023-02-01T09:00:11;16.08;;;5.20;;
52468;SDS011;38381;53.688;10.776;2023-02-01T09:05:13;18.17;;;5.95;;
52468;SDS011;38381;53.688;10.776;2023-02-01T09:10:16;15.70;;;5.43;;
52468;SDS011;38381;53.688;10.776;2023-02-01T09:15:16;14.20;;;6.20;;
52468;SDS011;38381;53.688;10.776;2023-02-01T09:20:17;5.85;;;2.80;;
52468;SDS011;38381;53.688;10.776;2023-02-01T09:25:20;5.30;;;2.35;;
52468;SDS011;38381;53.688;10.776;2023-02-01T09:30:20;6.20;;;2.17;;
52468;SDS011;38381;53.688;10.776;2023-02-01T09:35:20;5.13;;;1.60;;
52468;SDS011;38381;53.688;10.776;2023-02-01T09:40:21;2.47;;;1.70;;
52468;SDS011;38381;53.688;10.776;2023-02-01T09:45:24;3.28;;;2.08;;
52468;SDS011;38381;53.688;10.776;2023-02-01T09:50:39;6.90;;;2.45;;
52468;SDS011;38381;53.688;10.776;2023-02-01T09:55:48;4.82;;;2.38;;
52468;SDS011;38381;53.688;10.776;2023-02-01T10:00:54;7.85;;;2.65;;
52468;SDS011;38381;53.688;10.776;2023-02-01T10:11:13;4.60;;;2.53;;
52468;SDS011;38381;53.688;10.776;2023-02-01T10:22:00;6.40;;;3.23;;
52468;SDS011;38381;53.688;10.776;2023-02-01T10:27:11;14.70;;;4.13;;
52468;SDS011;38381;53.688;10.776;2023-02-01T10:32:15;13.13;;;4.38;;
52468;SDS011;38381;53.688;10.776;2023-02-01T10:42:32;15.02;;;5.15;;
52468;SDS011;38381;53.688;10.776;2023-02-01T10:47:32;5.68;;;3.22;;
52468;SDS011;38381;53.688;10.776;2023-02-01T10:52:40;19.20;;;7.35;;
52468;SDS011;38381;53.688;10.776;2023-02-01T10:57:54;14.38;;;4.53;;
52468;SDS011;38381;53.688;10.776;2023-02-01T11:02:56;12.75;;;4.88;;
52468;SDS011;38381;53.688;10.776;2023-02-01T11:07:57;13.52;;;6.38;;
52468;SDS011;38381;53.688;10.776;2023-02-01T11:13:01;11.50;;;4.25;;
52468;SDS011;38381;53.688;10.776;2023-02-01T11:23:41;10.65;;;4.47;;
52468;SDS011;38381;53.688;10.776;2023-02-01T11:28:48;7.45;;;4.07;;
52468;SDS011;38381;53.688;10.776;2023-02-01T11:34:00;15.55;;;5.88;;
52468;SDS011;38381;53.688;10.776;2023-02-01T11:44:21;12.10;;;4.53;;
52468;SDS011;38381;53.688;10.776;2023-02-01T11:49:26;15.95;;;5.63;;
52468;SDS011;38381;53.688;10.776;2023-02-01T11:54:34;8.05;;;3.53;;
52468;SDS011;38381;53.688;10.776;2023-02-01T12:26:48;8.30;;;4.40;;
52468;SDS011;38381;53.688;10.776;2023-02-01T12:37:31;14.63;;;7.82;;
52468;SDS011;38381;53.688;10.776;2023-02-01T12:42:48;12.85;;;4.32;;
52468;SDS011;38381;53.688;10.776;2023-02-01T12:48:23;11.75;;;4.25;;
52468;SDS011;38381;53.688;10.776;2023-02-01T12:53:36;9.60;;;4.45;;
52468;SDS011;38381;53.688;10.776;2023-02-01T13:03:57;5.93;;;2.90;;
52468;SDS011;38381;53.688;10.776;2023-02-01T13:09:12;8.48;;;3.58;;
52468;SDS011;38381;53.688;10.776;2023-02-01T13:14:42;6.05;;;3.33;;
52468;SDS011;38381;53.688;10.776;2023-02-01T13:30:28;3.03;;;1.92;;
52468;SDS011;38381;53.688;10.776;2023-02-01T13:46:39;1.80;;;1.70;;
52468;SDS011;38381;53.688;10.776;2023-02-01T13:51:45;1.70;;;1.30;;
52468;SDS011;38381;53.688;10.776;2023-02-01T13:56:48;1.75;;;1.65;;
52468;SDS011;38381;53.688;10.776;2023-02-01T14:01:48;1.52;;;1.42;;
52468;SDS011;38381;53.688;10.776;2023-02-01T14:06:49;2.88;;;1.50;;
52468;SDS011;38381;53.688;10.776;2023-02-01T14:11:54;1.55;;;1.45;;
52468;SDS011;38381;53.688;10.776;2023-02-01T14:27:17;1.83;;;1.70;;
52468;SDS011;38381;53.688;10.776;2023-02-01T14:32:21;1.80;;;1.45;;
52468;SDS011;38381;53.688;10.776;2023-02-01T14:37:32;2.20;;;1.90;;
52468;SDS011;38381;53.688;10.776;2023-02-01T14:47:42;2.47;;;1.70;;
52468;SDS011;38381;53.688;10.776;2023-02-01T14:53:01;2.17;;;1.98;;
52468;SDS011;38381;53.688;10.776;2023-02-01T15:03:51;4.80;;;2.97;;
52468;SDS011;38381;53.688;10.776;2023-02-01T15:09:03;6.35;;;2.92;;
52468;SDS011;38381;53.688;10.776;2023-02-01T15:14:25;6.28;;;3.75;;
52468;SDS011;38381;53.688;10.776;2023-02-01T15:19:27;11.98;;;4.10;;
52468;SDS011;38381;53.688;10.776;2023-02-01T15:24:30;5.18;;;2.42;;
52468;SDS011;38381;53.688;10.776;2023-02-01T15:29:31;5.38;;;2.90;;
52468;SDS011;38381;53.688;10.776;2023-02-01T15:34:45;5.43;;;2.15;;
52468;SDS011;38381;53.688;10.776;2023-02-01T15:45:16;4.80;;;3.95;;
52468;SDS011;38381;53.688;10.776;2023-02-01T15:50:18;5.32;;;2.95;;
52468;SDS011;38381;53.688;10.776;2023-02-01T15:55:23;5.55;;;2.70;;
52468;SDS011;38381;53.688;10.776;2023-02-01T16:00:44;5.78;;;3.38;;
52468;SDS011;38381;53.688;10.776;2023-02-01T16:05:58;10.65;;;3.90;;
52468;SDS011;38381;53.688;10.776;2023-02-01T16:16:09;11.40;;;3.50;;
52468;SDS011;38381;53.688;10.776;2023-02-01T16:21:13;10.10;;;4.03;;
52468;SDS011;38381;53.688;10.776;2023-02-01T16:26:14;16.02;;;4.45;;
52468;SDS011;38381;53.688;10.776;2023-02-01T16:31:15;12.17;;;4.70;;
52468;SDS011;38381;53.688;10.776;2023-02-01T16:36:20;8.60;;;3.40;;
52468;SDS011;38381;53.688;10.776;2023-02-01T16:41:22;10.20;;;3.85;;
52468;SDS011;38381;53.688;10.776;2023-02-01T16:46:24;12.27;;;4.05;;
52468;SDS011;38381;53.688;10.776;2023-02-01T16:51:28;7.32;;;4.05;;
52468;SDS011;38381;53.688;10.776;2023-02-01T16:56:33;5.28;;;3.80;;
52468;SDS011;38381;53.688;10.776;2023-02-01T17:01:34;12.85;;;6.03;;
52468;SDS011;38381;53.688;10.776;2023-02-01T17:06:35;9.52;;;4.72;;
52468;SDS011;38381;53.688;10.776;2023-02-01T17:11:36;11.45;;;4.32;;
52468;SDS011;38381;53.688;10.776;2023-02-01T17:16:37;12.68;;;6.57;;
52468;SDS011;38381;53.688;10.776;2023-02-01T17:21:42;13.93;;;5.13;;
52468;SDS011;38381;53.688;10.776;2023-02-01T17:26:49;16.75;;;5.53;;
52468;SDS011;38381;53.688;10.776;2023-02-01T17:31:52;12.10;;;5.38;;
52468;SDS011;38381;53.688;10.776;2023-02-01T17:36:54;14.38;;;4.80;;
52468;SDS011;38381;53.688;10.776;2023-02-01T17:41:54;14.07;;;6.78;;
52468;SDS011;38381;53.688;10.776;2023-02-01T17:46:54;19.83;;;5.47;;
52468;SDS011;38381;53.688;10.776;2023-02-01T17:51:56;21.38;;;5.93;;
52468;SDS011;38381;53.688;10.776;2023-02-01T17:56:57;15.00;;;5.93;;
52468;SDS011;38381;53.688;10.776;2023-02-01T18:02:02;10.98;;;5.32;;
52468;SDS011;38381;53.688;10.776;2023-02-01T18:07:02;19.05;;;6.45;;
52468;SDS011;38381;53.688;10.776;2023-02-01T18:12:03;10.45;;;5.38;;
52468;SDS011;38381;53.688;10.776;2023-02-01T18:17:04;16.90;;;5.65;;
52468;SDS011;38381;53.688;10.776;2023-02-01T18:22:05;21.05;;;6.47;;
52468;SDS011;38381;53.688;10.776;2023-02-01T18:27:06;14.10;;;5.93;;
52468;SDS011;38381;53.688;10.776;2023-02-01T18:32:08;18.67;;;5.50;;
52468;SDS011;38381;53.688;10.776;2023-02-01T18:37:09;16.63;;;5.78;;
52468;SDS011;38381;53.688;10.776;2023-02-01T18:42:10;15.73;;;7.80;;
52468;SDS011;38381;53.688;10.776;2023-02-01T18:47:11;15.05;;;6.10;;
52468;SDS011;38381;53.688;10.776;2023-02-01T18:52:11;21.30;;;7.03;;
52468;SDS011;38381;53.688;10.776;2023-02-01T18:57:12;17.25;;;5.63;;
52468;SDS011;38381;53.688;10.776;2023-02-01T19:02:15;16.70;;;7.28;;
52468;SDS011;38381;53.688;10.776;2023-02-01T19:07:15;15.00;;;5.35;;
52468;SDS011;38381;53.688;10.776;2023-02-01T19:12:16;17.92;;;5.75;;
52468;SDS011;38381;53.688;10.776;2023-02-01T19:17:16;15.38;;;5.50;;
52468;SDS011;38381;53.688;10.776;2023-02-01T19:22:17;16.75;;;5.85;;
52468;SDS011;38381;53.688;10.776;2023-02-01T19:27:18;20.33;;;6.53;;
52468;SDS011;38381;53.688;10.776;2023-02-01T19:32:19;22.88;;;6.78;;
52468;SDS011;38381;53.688;10.776;2023-02-01T19:37:19;17.92;;;6.20;;
52468;SDS011;38381;53.688;10.776;2023-02-01T19:42:20;16.73;;;6.07;;
52468;SDS011;38381;53.688;10.776;2023-02-01T19:47:20;15.77;;;6.40;;
52468;SDS011;38381;53.688;10.776;2023-02-01T19:52:21;9.93;;;4.37;;
52468;SDS011;38381;53.688;10.776;2023-02-01T19:57:24;7.55;;;4.15;;
52468;SDS011;38381;53.688;10.776;2023-02-01T20:02:31;13.32;;;4.57;;
52468;SDS011;38381;53.688;10.776;2023-02-01T20:07:32;15.27;;;3.95;;
52468;SDS011;38381;53.688;10.776;2023-02-01T20:12:32;14.48;;;4.55;;
52468;SDS011;38381;53.688;10.776;2023-02-01T20:17:33;12.68;;;4.78;;
52468;SDS011;38381;53.688;10.776;2023-02-01T20:22:35;12.98;;;5.47;;
52468;SDS011;38381;53.688;10.776;2023-02-01T20:27:36;8.50;;;3.92;;
52468;SDS011;38381;53.688;10.776;2023-02-01T20:32:36;13.18;;;3.80;;
52468;SDS011;38381;53.688;10.776;2023-02-01T20:37:37;12.82;;;5.45;;
52468;SDS011;38381;53.688;10.776;2023-02-01T20:42:37;9.70;;;4.95;;
52468;SDS011;38381;53.688;10.776;2023-02-01T20:47:39;5.18;;;3.05;;
52468;SDS011;38381;53.688;10.776;2023-02-01T20:52:41;11.07;;;4.43;;
52468;SDS011;38381;53.688;10.776;2023-02-01T20:57:41;12.80;;;4.30;;
52468;SDS011;38381;53.688;10.776;2023-02-01T21:02:42;16.63;;;4.88;;
52468;SDS011;38381;53.688;10.776;2023-02-01T21:07:42;21.00;;;4.93;;
52468;SDS011;38381;53.688;10.776;2023-02-01T21:12:43;18.55;;;6.35;;
52468;SDS011;38381;53.688;10.776;2023-02-01T21:17:43;6.30;;;3.95;;
52468;SDS011;38381;53.688;10.776;2023-02-01T21:22:44;13.45;;;6.32;;
52468;SDS011;38381;53.688;10.776;2023-02-01T21:27:44;12.52;;;4.30;;
52468;SDS011;38381;53.688;10.776;2023-02-01T21:32:45;14.98;;;4.72;;
52468;SDS011;38381;53.688;10.776;2023-02-01T21:37:48;12.07;;;5.07;;
52468;SDS011;38381;53.688;10.776;2023-02-01T21:42:49;16.20;;;6.13;;
52468;SDS011;38381;53.688;10.776;2023-02-01T21:47:49;14.57;;;5.57;;
52468;SDS011;38381;53.688;10.776;2023-02-01T21:52:50;16.27;;;4.25;;
52468;SDS011;38381;53.688;10.776;2023-02-01T21:57:50;17.38;;;5.15;;
52468;SDS011;38381;53.688;10.776;2023-02-01T22:02:50;13.07;;;6.77;;
52468;SDS011;38381;53.688;10.776;2023-02-01T22:07:51;10.52;;;4.20;;
52468;SDS011;38381;53.688;10.776;2023-02-01T22:12:51;13.68;;;5.03;;
52468;SDS011;38381;53.688;10.776;2023-02-01T22:17:52;12.88;;;5.22;;
52468;SDS011;38381;53.688;10.776;2023-02-01T22:22:53;19.50;;;6.72;;
52468;SDS011;38381;53.688;10.776;2023-02-01T22:27:55;15.02;;;6.20;;
52468;SDS011;38381;53.688;10.776;2023-02-01T22:32:55;19.92;;;6.32;;
52468;SDS011;38381;53.688;10.776;2023-02-01T22:37:56;14.17;;;5.33;;
52468;SDS011;38381;53.688;10.776;2023-02-01T22:42:56;12.27;;;4.90;;
52468;SDS011;38381;53.688;10.776;2023-02-01T22:47:57;11.85;;;4.70;;
52468;SDS011;38381;53.688;10.776;2023-02-01T22:52:57;15.83;;;5.43;;
52468;SDS011;38381;53.688;10.776;2023-02-01T22:57:58;15.00;;;5.83;;
52468;SDS011;38381;53.688;10.776;2023-02-01T23:02:58;15.32;;;5.68;;
52468;SDS011;38381;53.688;10.776;2023-02-01T23:07:59;13.13;;;7.43;;
52468;SDS011;38381;53.688;10.776;2023-02-01T23:12:59;10.93;;;5.70;;
52468;SDS011;38381;53.688;10.776;2023-02-01T23:18:00;21.23;;;7.00;;
52468;SDS011;38381;53.688;10.776;2023-02-01T23:23:00;13.77;;;5.07;;
52468;SDS011;38381;53.688;10.776;2023-02-01T23:28:00;13.98;;;4.50;;
52468;SDS011;38381;53.688;10.776;2023-02-01T23:33:01;14.18;;;4.75;;
52468;SDS011;38381;53.688;10.776;2023-02-01T23:38:01;13.40;;;5.63;;
52468;SDS011;38381;53.688;10.776;2023-02-01T23:43:02;11.13;;;3.85;;
52468;SDS011;38381;53.688;10.776;2023-02-01T23:48:21;14.25;;;5.32;;
52468;SDS011;38381;53.688;10.776;2023-02-01T23:53:21;9.88;;;4.55;;
52468;SDS011;38381;53.688;10.776;2023-02-01T23:58:22;9.45;;;4.18;;
